^^
Datos históricos de la estación: Murcia-Puente Tocinos
Diario Informe para Marzo 15, 2021 Unidades:  Métrico    Ingés   Ambas
Diario Semanal Mensual Anual
  Máxima: Mínima: Promedio:
Temperatura: 17.5 °C 8.7 °C 12.4 °C
Punto de rocio: 1.9 °C -3.2 °C -0.6 °C
Humedad: 59% 29.1% 42%
Velocidad viento: 28.2km/h 3.9km/h 12.7km/h
Racha viento: 48.4km/h - -
Viento- - SO
Presión: 1024.4 hPa 1021.0 hPa -
Precipitación: 0.0 mm    
 
 
Tabla de datos para Marzo 15, 2021
Hora Temperatura Punto de rocio Presión Viento Velocidad viento Racha viento Humedad Intensidad lluvia(por hora) Nubes
00:04 12.3 °C -2.9 °C 1022.8 hPa OSO 8.7 km/h 16.7 km/h 34.7% 0.0 mm
00:09 12.3 °C -3.1 °C 1022.9 hPa SSO 7.8 km/h 21.7 km/h 34.1% 0.0 mm
00:14 12.3 °C -3 °C 1022.9 hPa SSO 7.6 km/h 22.5 km/h 34.4% 0.0 mm
00:19 12.1 °C -2.5 °C 1022.9 hPa Sur 7 km/h 10.3 km/h 35.9% 0.0 mm
00:24 11.8 °C -2.8 °C 1022.9 hPa SSO 6.9 km/h 14.8 km/h 36% 0.0 mm
00:29 11.8 °C -3 °C 1022.8 hPa Sur 6.9 km/h 14.5 km/h 35.6% 0.0 mm
00:34 11.7 °C -2.7 °C 1022.8 hPa SSE 6.9 km/h 14.5 km/h 36.7% 0.0 mm
00:39 11.5 °C -2.8 °C 1022.8 hPa SE 6.5 km/h 13 km/h 36.9% 0.0 mm
00:44 11.2 °C -2.7 °C 1022.8 hPa SSE 6.5 km/h 15.6 km/h 37.7% 0.0 mm
00:49 10.9 °C -2.8 °C 1022.8 hPa SSE 9.2 km/h 16.1 km/h 38.4% 0.0 mm
00:54 10.8 °C -2.7 °C 1022.9 hPa Sur 9.5 km/h 14.8 km/h 38.9% 0.0 mm
00:59 10.7 °C -2.8 °C 1022.9 hPa Sur 7.8 km/h 13 km/h 38.9% 0.0 mm
01:04 10.7 °C -2.7 °C 1022.9 hPa Sur 7.6 km/h 12.9 km/h 39% 0.0 mm
01:09 10.7 °C -2.8 °C 1022.9 hPa SSO 7 km/h 9.3 km/h 38.8% 0.0 mm
01:14 10.7 °C -3.1 °C 1022.8 hPa SSO 6.9 km/h 11.1 km/h 38% 0.0 mm
01:19 10.8 °C -3 °C 1022.8 hPa SSO 5.9 km/h 11.3 km/h 38% 0.0 mm
01:24 10.9 °C -3.2 °C 1022.8 hPa SSO 5.8 km/h 11.1 km/h 37% 0.0 mm
01:29 10.9 °C -3.2 °C 1022.8 hPa SO 6.7 km/h 11.3 km/h 37% 0.0 mm
01:34 10.9 °C -3.2 °C 1022.8 hPa OSO 6.9 km/h 12.2 km/h 37% 0.0 mm
01:39 10.8 °C -3 °C 1022.8 hPa OSO 6.9 km/h 12.9 km/h 37.7% 0.0 mm
01:44 10.8 °C -3 °C 1022.8 hPa SE 6.9 km/h 9.7 km/h 38% 0.0 mm
01:49 10.6 °C -2.8 °C 1022.8 hPa SE 5.1 km/h 13.7 km/h 38.9% 0.0 mm
01:54 10.3 °C -2.9 °C 1022.8 hPa SSE 4.7 km/h 14.5 km/h 39.6% 0.0 mm
01:59 10.3 °C -3 °C 1022.8 hPa Sur 8.3 km/h 13.7 km/h 39.1% 0.0 mm
02:04 10.3 °C -3 °C 1022.8 hPa Sur 8.7 km/h 14.5 km/h 39% 0.0 mm
02:09 10.3 °C -2.9 °C 1022.9 hPa SSE 7.8 km/h 9.7 km/h 39.3% 0.0 mm
02:14 10.3 °C -2.7 °C 1022.9 hPa SSE 7.6 km/h 10 km/h 40% 0.0 mm
02:19 10.3 °C -2.7 °C 1022.9 hPa Sur 6 km/h 10.3 km/h 40% 0.0 mm
02:24 10.4 °C -2.8 °C 1023.0 hPa SSO 5.8 km/h 15.6 km/h 39.7% 0.0 mm
02:29 10.6 °C -2.8 °C 1023.0 hPa Sur 7.9 km/h 16.1 km/h 39% 0.0 mm
02:34 10.7 °C -2.8 °C 1023.0 hPa SSE 8.4 km/h 14.5 km/h 39% 0.0 mm
02:39 10.5 °C -2.5 °C 1023.1 hPa SSE 7.1 km/h 14 km/h 40% 0.0 mm
02:44 10.3 °C -2.7 °C 1023.1 hPa Sur 6.9 km/h 14.8 km/h 40% 0.0 mm
02:49 10.4 °C -2.7 °C 1023.1 hPa SSO 8.1 km/h 14.5 km/h 40% 0.0 mm
02:54 10.6 °C -2.4 °C 1023.1 hPa SSO 8.4 km/h 11.9 km/h 40.1% 0.0 mm
02:59 10.6 °C -2.1 °C 1023.1 hPa SO 8.4 km/h 11.9 km/h 41% 0.0 mm
03:04 10.6 °C -2.1 °C 1023.1 hPa SO 8.4 km/h 15.6 km/h 41% 0.0 mm
03:09 10.7 °C -2.3 °C 1023.1 hPa SSO 7.7 km/h 16.1 km/h 40.3% 0.0 mm
03:14 10.7 °C -2.4 °C 1023.1 hPa Sur 7.6 km/h 14.5 km/h 40% 0.0 mm
03:19 10.7 °C -2.3 °C 1023.1 hPa SSE 8.3 km/h 13 km/h 40.3% 0.0 mm
03:24 10.5 °C -2.3 °C 1023.1 hPa Sur 8.4 km/h 13 km/h 41% 0.0 mm
03:29 10.4 °C -2.3 °C 1023.1 hPa SO 7.7 km/h 15.6 km/h 41% 0.0 mm
03:34 10.6 °C -2.5 °C 1023.1 hPa SO 7.6 km/h 20.4 km/h 40.2% 0.0 mm
03:39 10.8 °C -2.6 °C 1023.1 hPa SSO 9.3 km/h 21.7 km/h 39% 0.0 mm
03:44 10.9 °C -2.5 °C 1023.1 hPa SSO 9.5 km/h 22.5 km/h 39% 0.0 mm
03:49 10.9 °C -2.5 °C 1023.1 hPa SSO 11.5 km/h 20.9 km/h 39.2% 0.0 mm
03:54 10.8 °C -2.2 °C 1023.3 hPa SSO 11.9 km/h 20.9 km/h 40% 0.0 mm
03:59 10.8 °C -2.3 °C 1023.3 hPa SSO 11.2 km/h 14.8 km/h 40% 0.0 mm
04:04 10.6 °C -2.5 °C 1023.3 hPa Sur 11.1 km/h 14.8 km/h 40% 0.0 mm
04:09 10.3 °C -2.5 °C 1023.3 hPa Sur 9.8 km/h 16.7 km/h 40.5% 0.0 mm
04:14 10.2 °C -2.5 °C 1023.3 hPa Sur 9.5 km/h 16.7 km/h 41% 0.0 mm
04:19 10.1 °C -2.3 °C 1023.3 hPa Sur 9.9 km/h 14.5 km/h 41.7% 0.0 mm
04:24 10.1 °C -2.3 °C 1023.4 hPa Sur 10 km/h 14.5 km/h 42% 0.0 mm
04:29 10 °C -2.4 °C 1023.4 hPa SSE 7.5 km/h 14 km/h 42% 0.0 mm
04:34 10 °C -2.3 °C 1023.4 hPa SSE 6.9 km/h 20.4 km/h 42% 0.0 mm
04:39 10.1 °C -2.3 °C 1023.4 hPa SSE 9.5 km/h 20.9 km/h 42% 0.0 mm
04:44 10.1 °C -2.2 °C 1023.3 hPa Sur 10 km/h 13 km/h 42.2% 0.0 mm
04:49 10 °C -2 °C 1023.3 hPa SSE 5.3 km/h 10 km/h 43% 0.0 mm
04:54 9.9 °C -2 °C 1023.3 hPa Sur 4.7 km/h 13 km/h 43.3% 0.0 mm
04:59 9.8 °C -1.9 °C 1023.3 hPa Sur 6.5 km/h 12.9 km/h 44% 0.0 mm
05:04 9.7 °C -1.9 °C 1023.3 hPa Sur 6.9 km/h 9.7 km/h 44.4% 0.0 mm
05:09 9.6 °C -1.7 °C 1023.3 hPa Sur 6.5 km/h 9.7 km/h 45.1% 0.0 mm
05:14 9.6 °C -1.4 °C 1023.1 hPa SSO 6.5 km/h 11.9 km/h 46% 0.0 mm
05:19 9.7 °C -1.4 °C 1023.1 hPa SSO 6.5 km/h 11.3 km/h 46% 0.0 mm
05:24 9.7 °C -1.4 °C 1023.1 hPa SO 6.5 km/h 11.1 km/h 46% 0.0 mm
05:29 9.7 °C -1.2 °C 1023.0 hPa SO 6.5 km/h 14.8 km/h 46.7% 0.0 mm
05:34 9.7 °C -0.9 °C 1023.0 hPa OSO 6.5 km/h 20.4 km/h 47.6% 0.0 mm
05:39 9.7 °C -0.7 °C 1023.0 hPa OSO 8.4 km/h 22.2 km/h 48.2% 0.0 mm
05:44 9.9 °C -0.4 °C 1023.0 hPa OSO 8.7 km/h 22.5 km/h 48.9% 0.0 mm
05:49 10.1 °C -0.3 °C 1023.0 hPa OSO 10.1 km/h 22 km/h 48.5% 0.0 mm
05:54 10.1 °C -0.2 °C 1023.1 hPa OSO 10.3 km/h 22.5 km/h 49% 0.0 mm
05:59 10.1 °C -0.2 °C 1023.1 hPa SO 10 km/h 22.5 km/h 49% 0.0 mm
06:04 9.9 °C -0.3 °C 1023.1 hPa SO 10 km/h 19.3 km/h 49% 0.0 mm
06:09 9.8 °C -0.5 °C 1023.1 hPa SO 10 km/h 20.4 km/h 49% 0.0 mm
06:14 9.7 °C -0.5 °C 1022.9 hPa SO 10 km/h 20.9 km/h 49.2% 0.0 mm
06:19 9.4 °C -0.5 °C 1022.9 hPa SSO 10.3 km/h 19.3 km/h 50% 0.0 mm
06:24 9.3 °C -0.6 °C 1022.9 hPa SSO 10.3 km/h 19 km/h 50% 0.0 mm
06:29 9.2 °C -0.7 °C 1022.8 hPa SSO 10.3 km/h 19.3 km/h 50% 0.0 mm
06:34 9.2 °C -0.5 °C 1022.8 hPa SSO 10.3 km/h 17.7 km/h 50.9% 0.0 mm
06:39 9.2 °C -0.4 °C 1023.0 hPa SO 10.3 km/h 17.7 km/h 51% 0.0 mm
06:44 9.1 °C -0.5 °C 1023.0 hPa SO 10.3 km/h 16.1 km/h 51% 0.0 mm
06:49 8.9 °C -0.5 °C 1023.0 hPa SSO 9 km/h 16.7 km/h 51.7% 0.0 mm
06:54 8.7 °C -0.3 °C 1023.0 hPa SO 8.7 km/h 20.9 km/h 53.1% 0.0 mm
06:59 8.8 °C 0 °C 1023.0 hPa SO 10.9 km/h 25.1 km/h 54.3% 0.0 mm
07:04 9 °C 0.4 °C 1023.0 hPa OSO 11.1 km/h 25.9 km/h 55% 0.0 mm
07:09 9.2 °C 0.6 °C 1023.0 hPa OSO 13.2 km/h 25.7 km/h 55% 0.0 mm
07:14 9.2 °C 0.7 °C 1023.0 hPa OSO 13.7 km/h 24.1 km/h 55% 0.0 mm
07:19 9.3 °C 0.9 °C 1023.0 hPa OSO 13.7 km/h 24.1 km/h 55.7% 0.0 mm
07:24 9.3 °C 0.9 °C 1023.1 hPa SO 13.7 km/h 24.1 km/h 56% 0.0 mm
07:29 9.3 °C 0.9 °C 1023.1 hPa OSO 14 km/h 24.1 km/h 56% 0.0 mm
07:34 9.2 °C 0.9 °C 1023.1 hPa SO 14 km/h 27.8 km/h 56% 0.0 mm
07:39 9.2 °C 0.9 °C 1023.1 hPa OSO 13.1 km/h 27.4 km/h 56% 0.0 mm
07:44 9.2 °C 0.9 °C 1023.0 hPa OSO 13 km/h 28.2 km/h 56% 0.0 mm
07:49 9.2 °C 0.9 °C 1023.0 hPa OSO 13.9 km/h 27.8 km/h 56.1% 0.0 mm
07:54 9.2 °C 1.1 °C 1023.2 hPa OSO 14 km/h 23.7 km/h 57% 0.0 mm
07:59 9.3 °C 1 °C 1023.2 hPa OSO 13.2 km/h 24.1 km/h 56.3% 0.0 mm
08:04 9.4 °C 1.1 °C 1023.2 hPa SO 13 km/h 22.5 km/h 56% 0.0 mm
08:09 9.4 °C 1.1 °C 1023.2 hPa SO 11.4 km/h 22.2 km/h 56% 0.0 mm
08:14 9.3 °C 1.1 °C 1023.2 hPa SO 11.1 km/h 22.5 km/h 56.4% 0.0 mm
08:19 9.2 °C 1.1 °C 1023.2 hPa SO 10.2 km/h 16.7 km/h 57% 0.0 mm
08:24 9.1 °C 1.1 °C 1023.4 hPa SO 10 km/h 16.1 km/h 57.4% 0.0 mm
08:29 9 °C 1.2 °C 1023.4 hPa SSO 8.5 km/h 16.7 km/h 58% 0.0 mm
08:34 8.9 °C 1.1 °C 1023.4 hPa SO 8.4 km/h 18.5 km/h 58% 0.0 mm
08:39 8.9 °C 1.2 °C 1023.5 hPa SO 9.3 km/h 17.2 km/h 58.6% 0.0 mm
08:44 8.9 °C 1.1 °C 1023.5 hPa SO 9.5 km/h 17.7 km/h 58% 0.0 mm
08:49 9.1 °C 1.2 °C 1023.5 hPa SO 9.9 km/h 16.1 km/h 58% 0.0 mm
08:54 9.2 °C 1.3 °C 1023.5 hPa SO 10 km/h 16.7 km/h 58% 0.0 mm
08:59 9.2 °C 1.3 °C 1023.5 hPa SO 8.9 km/h 16.1 km/h 58% 0.0 mm
09:04 9.3 °C 1.4 °C 1023.5 hPa SO 8.7 km/h 22.2 km/h 57.9% 0.0 mm
09:09 9.4 °C 1.3 °C 1023.7 hPa SSO 8.4 km/h 22.5 km/h 57% 0.0 mm
09:14 9.2 °C 1 °C 1023.7 hPa Sur 8.4 km/h 17.2 km/h 56.5% 0.0 mm
09:19 8.7 °C 1 °C 1023.7 hPa Sur 9.8 km/h 17.7 km/h 58.4% 0.0 mm
09:24 8.7 °C 1.1 °C 1023.7 hPa Sur 10 km/h 18.5 km/h 59% 0.0 mm
09:29 9 °C 1.3 °C 1023.7 hPa Sur 11.6 km/h 20.4 km/h 58.5% 0.0 mm
09:34 9.2 °C 1.3 °C 1023.7 hPa Sur 11.9 km/h 20.9 km/h 57.8% 0.0 mm
09:39 9.3 °C 1.3 °C 1024.0 hPa SSE 11.2 km/h 20.9 km/h 57% 0.0 mm
09:44 9.6 °C 1.5 °C 1024.0 hPa SSE 11.1 km/h 14.8 km/h 57% 0.0 mm
09:49 9.8 °C 1.6 °C 1024.0 hPa SSE 8.7 km/h 15.6 km/h 56.7% 0.0 mm
09:54 10 °C 1.6 °C 1024.1 hPa Sur 8.4 km/h 16.1 km/h 56% 0.0 mm
09:59 10.2 °C 1.6 °C 1024.1 hPa Sur 8.6 km/h 14.8 km/h 55.1% 0.0 mm
10:04 10.5 °C 1.7 °C 1024.1 hPa Sur 8.7 km/h 14.5 km/h 54.8% 0.0 mm
10:09 10.7 °C 1.8 °C 1024.2 hPa SSO 7.7 km/h 13 km/h 54% 0.0 mm
10:14 10.8 °C 1.7 °C 1024.2 hPa Sur 7.6 km/h 13 km/h 53.3% 0.0 mm
10:19 10.9 °C 1.7 °C 1024.2 hPa SSO 7.6 km/h 19 km/h 53% 0.0 mm
10:24 11.1 °C 1.7 °C 1024.2 hPa SO 7.6 km/h 26.2 km/h 52.3% 0.0 mm
10:29 11.4 °C 1.6 °C 1024.2 hPa OSO 11.5 km/h 26.2 km/h 51% 0.0 mm
10:34 11.6 °C 1.6 °C 1024.2 hPa OSO 12.2 km/h 25.9 km/h 50.3% 0.0 mm
10:39 11.8 °C 1.7 °C 1024.3 hPa OSO 12.2 km/h 29.8 km/h 50% 0.0 mm
10:44 11.9 °C 1.8 °C 1024.3 hPa Oeste 12.2 km/h 30.6 km/h 50% 0.0 mm
10:49 11.9 °C 1.7 °C 1024.3 hPa OSO 10.5 km/h 29.6 km/h 49.5% 0.0 mm
10:54 12.1 °C 1.8 °C 1024.4 hPa OSO 10.3 km/h 29 km/h 49.3% 0.0 mm
10:59 12.2 °C 1.8 °C 1024.4 hPa OSO 11.9 km/h 24.5 km/h 49% 0.0 mm
11:04 12.2 °C 1.8 °C 1024.4 hPa OSO 12.2 km/h 24.1 km/h 49% 0.0 mm
11:09 12.3 °C 1.9 °C 1024.4 hPa OSO 12.9 km/h 27.8 km/h 49% 0.0 mm
11:14 12.5 °C 1.9 °C 1024.2 hPa Oeste 13 km/h 29.8 km/h 48.4% 0.0 mm
11:19 12.6 °C 1.9 °C 1024.2 hPa OSO 16.5 km/h 31.5 km/h 48% 0.0 mm
11:24 12.7 °C 1.9 °C 1024.3 hPa OSO 17.2 km/h 32.3 km/h 48% 0.0 mm
11:29 12.7 °C 1.8 °C 1024.3 hPa OSO 17.9 km/h 32.2 km/h 47.4% 0.0 mm
11:34 12.8 °C 1.8 °C 1024.3 hPa Oeste 18 km/h 26.2 km/h 47% 0.0 mm
11:39 12.8 °C 1.8 °C 1024.4 hPa Oeste 16 km/h 26.2 km/h 46.9% 0.0 mm
11:44 13 °C 1.6 °C 1024.4 hPa Oeste 15.6 km/h 30.6 km/h 45.9% 0.0 mm
11:49 13.1 °C 1.4 °C 1024.4 hPa Oeste 16.3 km/h 30.6 km/h 45% 0.0 mm
11:54 13.2 °C 1.5 °C 1024.4 hPa Oeste 16.4 km/h 29 km/h 44.9% 0.0 mm
11:59 13.3 °C 1.3 °C 1024.2 hPa Oeste 16.1 km/h 33.5 km/h 44.1% 0.0 mm
12:04 13.3 °C 1.3 °C 1024.2 hPa Oeste 16.1 km/h 33.8 km/h 44% 0.0 mm
12:09 13.5 °C 1.4 °C 1024.2 hPa OSO 17 km/h 29 km/h 43.8% 0.0 mm
12:14 13.6 °C 1.6 °C 1024.0 hPa OSO 17.2 km/h 25.7 km/h 43.9% 0.0 mm
12:19 13.8 °C 1.4 °C 1024.0 hPa Oeste 14 km/h 25.9 km/h 43% 0.0 mm
12:24 13.8 °C 1.5 °C 1024.0 hPa Oeste 13.7 km/h 33.3 km/h 43% 0.0 mm
12:29 13.9 °C 1.5 °C 1023.8 hPa Oeste 15.8 km/h 33.8 km/h 43% 0.0 mm
12:34 13.9 °C 1.4 °C 1023.8 hPa Oeste 16.1 km/h 25.7 km/h 42.4% 0.0 mm
12:39 14.2 °C 1.4 °C 1023.8 hPa OSO 15.7 km/h 33.3 km/h 41.9% 0.0 mm
12:44 14.3 °C 1.3 °C 1023.5 hPa Oeste 15.6 km/h 33.8 km/h 41.1% 0.0 mm
12:49 14.6 °C 1.3 °C 1023.5 hPa OSO 16.3 km/h 34.3 km/h 40.6% 0.0 mm
12:54 14.5 °C 1.3 °C 1023.5 hPa OSO 16.4 km/h 33.8 km/h 40.7% 0.0 mm
12:59 14.5 °C 1.2 °C 1023.3 hPa OSO 18.6 km/h 37.8 km/h 40.3% 0.0 mm
13:04 14.5 °C 1.1 °C 1023.3 hPa Oeste 19 km/h 37.8 km/h 40.1% 0.0 mm
13:09 14.7 °C 1.3 °C 1023.3 hPa OSO 19.7 km/h 37 km/h 40.4% 0.0 mm
13:14 14.7 °C 1.2 °C 1023.0 hPa Oeste 19.8 km/h 35.4 km/h 40% 0.0 mm
13:19 14.8 °C 1.3 °C 1023.0 hPa Oeste 20.1 km/h 33.8 km/h 40% 0.0 mm
13:24 14.8 °C 1.4 °C 1023.0 hPa Oeste 20.1 km/h 33.8 km/h 40% 0.0 mm
13:29 15 °C 1.4 °C 1022.8 hPa Oeste 16.3 km/h 32.2 km/h 39.9% 0.0 mm
13:34 15 °C 1.5 °C 1022.8 hPa OSO 15.6 km/h 25.9 km/h 40% 0.0 mm
13:39 15.2 °C 1.5 °C 1022.8 hPa Oeste 14 km/h 24.1 km/h 39.7% 0.0 mm
13:44 15.3 °C 1.4 °C 1022.5 hPa Oeste 13.7 km/h 27.8 km/h 39.1% 0.0 mm
13:49 15.4 °C 1.3 °C 1022.5 hPa OSO 12.1 km/h 29.6 km/h 38.4% 0.0 mm
13:54 15.5 °C 1.2 °C 1022.5 hPa Oeste 11.9 km/h 30.6 km/h 37.9% 0.0 mm
13:59 15.6 °C 1.3 °C 1022.3 hPa Oeste 15.7 km/h 30.6 km/h 38% 0.0 mm
14:04 15.8 °C 1.1 °C 1022.3 hPa OSO 16.1 km/h 29.8 km/h 37.1% 0.0 mm
14:09 15.7 °C 1.1 °C 1022.3 hPa OSO 15 km/h 30.6 km/h 37% 0.0 mm
14:14 15.8 °C 1.1 °C 1022.1 hPa OSO 14.8 km/h 30.6 km/h 37% 0.0 mm
14:19 15.7 °C 1.1 °C 1022.1 hPa Oeste 15.5 km/h 29 km/h 37% 0.0 mm
14:24 15.7 °C 1.1 °C 1022.1 hPa Oeste 15.6 km/h 27.4 km/h 37.3% 0.0 mm
14:29 15.8 °C 1.1 °C 1021.9 hPa OSO 14.2 km/h 24.5 km/h 37% 0.0 mm
14:34 15.9 °C 1.1 °C 1021.9 hPa OSO 14 km/h 29.6 km/h 36.7% 0.0 mm
14:39 15.9 °C 0.9 °C 1021.9 hPa SO 14.7 km/h 29 km/h 36.2% 0.0 mm
14:44 16 °C 0.9 °C 1021.7 hPa OSO 14.8 km/h 24.1 km/h 36% 0.0 mm
14:49 16.2 °C 0.9 °C 1021.7 hPa OSO 12.5 km/h 26.2 km/h 35.5% 0.0 mm
14:54 16.3 °C 0.8 °C 1021.7 hPa OSO 12.2 km/h 26.2 km/h 35% 0.0 mm
14:59 16.3 °C 0.5 °C 1021.6 hPa SO 13.8 km/h 27 km/h 34.3% 0.0 mm
15:04 16.3 °C 0.4 °C 1021.6 hPa SO 14 km/h 29.8 km/h 34% 0.0 mm
15:09 16.4 °C 0.4 °C 1021.6 hPa OSO 16.1 km/h 30.6 km/h 33.9% 0.0 mm
15:10 16.4 °C 0.1 °C 1021.6 hPa OSO 16.3 km/h 22.5 km/h 33% 0.0 mm
15:19 16.4 °C 0 °C 1021.6 hPa SO 15.1 km/h 25.9 km/h 32.7% 0.0 mm
15:24 16.6 °C -0.1 °C 1021.6 hPa OSO 14.8 km/h 25.7 km/h 32.2% 0.0 mm
15:29 16.7 °C -0.1 °C 1021.3 hPa OSO 14.1 km/h 25.1 km/h 32% 0.0 mm
15:34 16.8 °C 0 °C 1021.3 hPa SO 14 km/h 25.9 km/h 32% 0.0 mm
15:39 17 °C -0.3 °C 1021.3 hPa OSO 12.1 km/h 24.1 km/h 31% 0.0 mm
15:44 17.1 °C -0.6 °C 1021.3 hPa Oeste 11.9 km/h 24.1 km/h 30.1% 0.0 mm
15:49 17.2 °C -0.9 °C 1021.3 hPa Oeste 13.5 km/h 26.2 km/h 29.2% 0.0 mm
15:54 17.3 °C -0.5 °C 1021.3 hPa OSO 13.7 km/h 25.9 km/h 30% 0.0 mm
15:59 17.4 °C -0.3 °C 1021.2 hPa Oeste 12.2 km/h 19.3 km/h 30.1% 0.0 mm
16:04 17.5 °C -0.4 °C 1021.2 hPa Oeste 11.9 km/h 27.8 km/h 29.7% 0.0 mm
16:09 17.5 °C -0.8 °C 1021.2 hPa Oeste 10.3 km/h 27.4 km/h 29.1% 0.0 mm
16:14 17.4 °C -0.4 °C 1021.2 hPa Oeste 10 km/h 22.5 km/h 29.8% 0.0 mm
16:19 17.4 °C -0.5 °C 1021.2 hPa Oeste 13.6 km/h 24.5 km/h 29.8% 0.0 mm
16:24 17.3 °C -0.7 °C 1021.2 hPa ONO 14 km/h 27 km/h 29.6% 0.0 mm
16:29 17.2 °C -0.6 °C 1021.2 hPa ONO 15.5 km/h 27.4 km/h 29.9% 0.0 mm
16:34 17.2 °C -0.7 °C 1021.2 hPa ONO 15.6 km/h 24.1 km/h 29.6% 0.0 mm
16:39 17.2 °C -0.6 °C 1021.2 hPa OSO 12.2 km/h 19.3 km/h 29.9% 0.0 mm
16:44 17.3 °C -0.5 °C 1021.2 hPa Oeste 11.9 km/h 17.2 km/h 30% 0.0 mm
16:49 17.3 °C -0.4 °C 1021.2 hPa OSO 9.7 km/h 20.9 km/h 30% 0.0 mm
16:54 17.3 °C -0.4 °C 1021.2 hPa Oeste 9.5 km/h 20.9 km/h 30% 0.0 mm
16:59 17.3 °C -0.2 °C 1021.0 hPa Oeste 9.5 km/h 20.4 km/h 30.5% 0.0 mm
17:04 17.3 °C -0.5 °C 1021.0 hPa Oeste 9.5 km/h 20.9 km/h 30% 0.0 mm
17:09 17.2 °C -0.6 °C 1021.3 hPa OSO 10.2 km/h 20.4 km/h 30% 0.0 mm
17:14 17.2 °C -0.6 °C 1021.3 hPa Oeste 10.3 km/h 25.6 km/h 30% 0.0 mm
17:19 16.9 °C -0.6 °C 1021.3 hPa Oeste 11 km/h 25.9 km/h 30.4% 0.0 mm
17:24 16.7 °C -0.5 °C 1021.4 hPa Oeste 11.1 km/h 27.8 km/h 31% 0.0 mm
17:29 16.6 °C -0.5 °C 1021.4 hPa SO 15.2 km/h 27.4 km/h 31.3% 0.0 mm
17:34 16.5 °C -0.4 °C 1021.4 hPa SO 15.6 km/h 25.7 km/h 31.8% 0.0 mm
17:39 16.3 °C -0.7 °C 1021.4 hPa OSO 14.9 km/h 27.8 km/h 31.3% 0.0 mm
17:44 16.2 °C -1.2 °C 1021.4 hPa OSO 14.8 km/h 27.4 km/h 30.5% 0.0 mm
17:49 16 °C -1.3 °C 1021.4 hPa OSO 13.8 km/h 28.2 km/h 30.6% 0.0 mm
17:50 15.8 °C -1.3 °C 1021.4 hPa OSO 13.3 km/h 27.4 km/h 31% 0.0 mm
17:59 15.5 °C -1.2 °C 1021.4 hPa Oeste 14.6 km/h 33.3 km/h 32% 0.0 mm
18:04 15.2 °C -1.3 °C 1021.4 hPa Oeste 14.8 km/h 34.3 km/h 32.3% 0.0 mm
18:09 15.1 °C -1.1 °C 1021.4 hPa Oeste 19.1 km/h 33.8 km/h 32.9% 0.0 mm
18:14 14.9 °C -1.3 °C 1021.4 hPa ONO 19.8 km/h 35.9 km/h 33% 0.0 mm
18:19 14.7 °C -1.4 °C 1021.4 hPa ONO 18.6 km/h 35.4 km/h 33% 0.0 mm
18:24 14.5 °C -1.4 °C 1021.4 hPa ONO 18.4 km/h 35.9 km/h 33.5% 0.0 mm
18:29 14.4 °C -1.4 °C 1021.3 hPa Oeste 22.5 km/h 40.7 km/h 33.7% 0.0 mm
18:34 14.4 °C -1.7 °C 1021.3 hPa Oeste 23.3 km/h 41.2 km/h 33% 0.0 mm
18:39 14.2 °C -1.8 °C 1021.5 hPa ONO 27.5 km/h 39.6 km/h 33.1% 0.0 mm
18:44 14.1 °C -1.6 °C 1021.5 hPa ONO 28.2 km/h 40.2 km/h 34% 0.0 mm
18:49 13.9 °C -1.7 °C 1021.5 hPa ONO 25.1 km/h 40.7 km/h 34% 0.0 mm
18:54 13.9 °C -1.8 °C 1021.7 hPa ONO 24.5 km/h 38.9 km/h 34% 0.0 mm
18:59 13.8 °C -1.8 °C 1021.7 hPa ONO 24.5 km/h 38.6 km/h 34% 0.0 mm
19:04 13.8 °C -1.8 °C 1021.7 hPa ONO 24.5 km/h 44.4 km/h 34% 0.0 mm
19:09 13.8 °C -1.8 °C 1021.7 hPa ONO 25 km/h 45.1 km/h 34% 0.0 mm
19:14 13.7 °C -1.9 °C 1021.7 hPa ONO 25.1 km/h 40.2 km/h 34% 0.0 mm
19:19 13.7 °C -1.9 °C 1021.7 hPa ONO 25.5 km/h 48.4 km/h 34% 0.0 mm
19:24 13.7 °C -1.9 °C 1021.8 hPa ONO 25.6 km/h 48.3 km/h 34% 0.0 mm
19:29 13.7 °C -1.9 °C 1021.8 hPa ONO 27.8 km/h 46.3 km/h 34% 0.0 mm
19:34 13.7 °C -1.9 °C 1021.8 hPa ONO 28.2 km/h 46.7 km/h 34% 0.0 mm
19:39 13.7 °C -1.9 °C 1022.2 hPa ONO 27.4 km/h 45.1 km/h 34% 0.0 mm
19:44 13.6 °C -2 °C 1022.2 hPa ONO 27.4 km/h 41.8 km/h 34% 0.0 mm
19:49 13.5 °C -2.1 °C 1022.2 hPa ONO 24 km/h 43.9 km/h 34% 0.0 mm
19:54 13.5 °C -2.1 °C 1022.5 hPa Oeste 23.7 km/h 47.8 km/h 34% 0.0 mm
19:59 13.5 °C -2.1 °C 1022.5 hPa OSO 24.9 km/h 48.3 km/h 34% 0.0 mm
20:04 13.4 °C -2 °C 1022.5 hPa OSO 25.1 km/h 38.9 km/h 34.4% 0.0 mm
20:09 13.2 °C -1.9 °C 1022.5 hPa OSO 20.3 km/h 38.6 km/h 35% 0.0 mm
20:14 13.1 °C -1.8 °C 1022.2 hPa OSO 19.8 km/h 33.8 km/h 35.6% 0.0 mm
20:19 12.9 °C -1.8 °C 1022.2 hPa Oeste 19.1 km/h 35.2 km/h 36% 0.0 mm
20:24 12.8 °C -1.9 °C 1022.2 hPa Oeste 19 km/h 35.4 km/h 36% 0.0 mm
20:29 12.7 °C -1.7 °C 1022.2 hPa Oeste 18.5 km/h 27.4 km/h 36.8% 0.0 mm
20:34 12.6 °C -1.7 °C 1022.2 hPa Oeste 18.4 km/h 28.2 km/h 37% 0.0 mm
20:39 12.5 °C -1.8 °C 1022.2 hPa Oeste 17.4 km/h 28.2 km/h 37% 0.0 mm
20:44 12.4 °C -1.9 °C 1022.2 hPa Oeste 17.2 km/h 33.5 km/h 37% 0.0 mm
20:49 12.3 °C -1.9 °C 1022.2 hPa Oeste 17.9 km/h 39.6 km/h 37% 0.0 mm
20:54 12.4 °C -1.9 °C 1022.2 hPa Oeste 18 km/h 40.2 km/h 37% 0.0 mm
20:59 12.4 °C -1.9 °C 1022.0 hPa Oeste 21.7 km/h 37 km/h 37% 0.0 mm
21:04 12.4 °C -1.9 °C 1022.0 hPa Oeste 22.1 km/h 33.8 km/h 37% 0.0 mm
21:09 12.4 °C -1.9 °C 1022.0 hPa Oeste 21.8 km/h 30.6 km/h 37% 0.0 mm
21:14 12.4 °C -1.9 °C 1022.0 hPa ONO 21.7 km/h 34.3 km/h 37% 0.0 mm
21:19 12.4 °C -1.9 °C 1022.0 hPa Oeste 20.2 km/h 33.8 km/h 37% 0.0 mm
21:24 12.3 °C -1.9 °C 1022.3 hPa Oeste 19.8 km/h 29 km/h 37% 0.0 mm
21:29 12.3 °C -2 °C 1022.3 hPa Oeste 15.3 km/h 25.7 km/h 37% 0.0 mm
21:34 12.2 °C -2 °C 1022.3 hPa ONO 14.8 km/h 22.5 km/h 37% 0.0 mm
21:39 12.2 °C -2 °C 1022.3 hPa Oeste 12.2 km/h 27.8 km/h 37.1% 0.0 mm
21:44 12.2 °C -2 °C 1022.2 hPa Oeste 11.9 km/h 27.4 km/h 37.1% 0.0 mm
21:49 12.2 °C -1.8 °C 1022.2 hPa OSO 14.5 km/h 25.9 km/h 37.9% 0.0 mm
21:54 12.1 °C -1.9 °C 1022.3 hPa OSO 14.8 km/h 19.3 km/h 38% 0.0 mm
21:59 11.9 °C -2 °C 1022.3 hPa OSO 7.7 km/h 16.7 km/h 38% 0.0 mm
22:04 11.9 °C -2 °C 1022.3 hPa SO 6.9 km/h 16.1 km/h 38% 0.0 mm
22:09 11.9 °C -2 °C 1022.4 hPa SSO 7.5 km/h 14.5 km/h 38% 0.0 mm
22:14 11.9 °C -2 °C 1022.4 hPa SSO 7.6 km/h 9.7 km/h 38% 0.0 mm
22:19 11.8 °C -1.9 °C 1022.4 hPa Oeste 4.6 km/h 8 km/h 38.4% 0.0 mm
22:24 11.7 °C -1.8 °C 1022.4 hPa OSO 3.9 km/h 13 km/h 39% 0.0 mm
22:29 11.7 °C -1.8 °C 1022.3 hPa SSO 3.9 km/h 13.7 km/h 39% 0.0 mm
22:34 11.6 °C -1.9 °C 1022.3 hPa SSO 3.9 km/h 14.8 km/h 39% 0.0 mm
22:39 11.6 °C -1.9 °C 1022.3 hPa SO 6.4 km/h 22.2 km/h 39.1% 0.0 mm
22:44 11.5 °C -1.7 °C 1022.3 hPa SSO 6.9 km/h 22.5 km/h 39.9% 0.0 mm
22:49 11.4 °C -1.7 °C 1022.3 hPa OSO 8.2 km/h 16.1 km/h 40% 0.0 mm
22:54 11.4 °C -1.7 °C 1022.4 hPa SO 8.4 km/h 17.2 km/h 40% 0.0 mm
22:55 11.4 °C -1.7 °C 1022.4 hPa SO 8 km/h 17.7 km/h 40% 0.0 mm
Murcia-Puente Tocinos, Espa?a
Compliments of Weather Underground - 3 mb

La estación de MeteoMurcia.com, publica sus datos en los siguientes proyectos:

Weather Underground PWS IMURCIAP2 Meteoclimatic www.awekas.at

W3Counter
Web Analytics